createdAt,value
2018-09-26T04:54:12.641Z,99.90
2018-09-26T04:59:15.351Z,99.90
2018-09-26T05:04:10.116Z,99.90
2018-09-26T05:09:07.717Z,99.90
2018-09-26T05:14:06.670Z,99.90
2018-09-26T05:19:05.940Z,99.90
2018-09-26T05:24:01.376Z,99.90
2018-09-26T05:28:57.871Z,99.90
2018-09-26T05:33:53.088Z,99.90
2018-09-26T05:38:55.579Z,99.90
2018-09-26T05:43:50.254Z,99.90
2018-09-26T05:48:45.207Z,97.60
2018-09-26T05:53:40.050Z,95.90
2018-09-26T05:58:35.786Z,96.70
2018-09-26T06:03:31.037Z,96.70
2018-09-26T06:08:24.863Z,97.00
2018-09-26T06:13:23.260Z,97.20
2018-09-26T06:18:17.575Z,96.50
2018-09-26T06:23:13.463Z,96.20
2018-09-26T06:28:08.145Z,96.10
2018-09-26T06:33:14.000Z,95.50
2018-09-26T06:38:09.425Z,95.00
2018-09-26T06:43:12.298Z,94.40
2018-09-26T06:48:17.137Z,94.70
2018-09-26T06:53:14.966Z,94.70
2018-09-26T06:58:10.437Z,95.30
2018-09-26T07:03:06.478Z,94.10
2018-09-26T07:08:01.142Z,93.60
2018-09-26T07:13:03.289Z,92.70
2018-09-26T07:17:57.698Z,91.60
2018-09-26T07:22:52.788Z,90.50
2018-09-26T07:27:49.256Z,89.60
2018-09-26T07:32:55.516Z,88.20
2018-09-26T07:37:51.559Z,84.40
2018-09-26T07:43:00.707Z,75.50
2018-09-26T07:47:55.921Z,64.50
2018-09-26T07:52:51.854Z,56.80
2018-09-26T07:57:53.760Z,56.70
2018-09-26T08:02:50.196Z,52.30
2018-09-26T08:07:47.321Z,52.90
2018-09-26T08:12:42.634Z,49.30
2018-09-26T08:17:38.337Z,47.70
2018-09-26T08:22:33.910Z,48.90
2018-09-26T08:27:29.849Z,46.20
2018-09-26T08:32:25.109Z,49.00
2018-09-26T08:37:20.424Z,51.90
2018-09-26T08:43:31.164Z,53.70
2018-09-26T08:48:27.280Z,54.70
2018-09-26T08:53:22.729Z,55.70
2018-09-26T08:58:18.309Z,53.70
2018-09-26T09:03:13.677Z,52.10
2018-09-26T09:08:11.265Z,47.00
2018-09-26T09:13:08.565Z,36.60
2018-09-26T09:18:05.434Z,34.00
2018-09-26T09:23:00.554Z,34.30
2018-09-26T09:27:55.697Z,31.60
2018-09-26T09:32:50.353Z,27.80
2018-09-26T09:37:45.528Z,25.90
2018-09-26T09:42:41.915Z,24.50
2018-09-26T09:47:37.055Z,22.80
2018-09-26T09:52:32.116Z,22.50
2018-09-26T09:57:29.826Z,21.00
2018-09-26T10:02:24.917Z,22.50
2018-09-26T10:07:20.535Z,22.80
2018-09-26T10:12:33.274Z,22.80
2018-09-26T10:17:31.735Z,22.10
2018-09-26T10:22:35.987Z,23.00
2018-09-26T10:27:31.126Z,22.30
2018-09-26T10:32:28.983Z,23.80
2018-09-26T10:37:24.796Z,22.50
2018-09-26T10:42:20.283Z,23.70
2018-09-26T10:47:15.222Z,24.10
2018-09-26T10:52:11.361Z,24.60
2018-09-26T10:57:08.013Z,24.50
2018-09-26T11:02:06.547Z,24.30
2018-09-26T11:07:01.083Z,26.10
2018-09-26T11:11:55.253Z,27.80
2018-09-26T11:16:51.364Z,28.60
2018-09-26T11:21:46.322Z,28.20
2018-09-26T11:26:43.008Z,29.20
2018-09-26T11:31:37.718Z,29.70
2018-09-26T11:36:32.233Z,29.20
2018-09-26T11:41:27.327Z,31.00
2018-09-26T11:46:21.958Z,31.20
2018-09-26T11:51:17.115Z,31.00
2018-09-26T11:56:11.312Z,32.80
2018-09-26T12:01:06.754Z,31.00
2018-09-26T12:06:08.862Z,31.90
2018-09-26T12:11:04.519Z,32.60
2018-09-26T12:15:58.982Z,33.80
2018-09-26T12:20:55.131Z,32.60
2018-09-26T12:25:50.934Z,33.20
2018-09-26T12:30:45.537Z,32.80
2018-09-26T12:35:42.681Z,33.80
2018-09-26T12:40:37.654Z,32.80
2018-09-26T12:45:33.646Z,33.80
2018-09-26T12:50:27.945Z,34.40
2018-09-26T12:55:24.304Z,34.60
2018-09-26T13:00:18.705Z,35.90
2018-09-26T13:05:15.148Z,35.40
2018-09-26T13:10:09.912Z,34.30
2018-09-26T13:15:05.220Z,33.70
2018-09-26T13:19:59.539Z,33.90
2018-09-26T13:25:03.235Z,34.20
2018-09-26T13:29:58.361Z,33.20
2018-09-26T13:34:53.689Z,33.90
2018-09-26T13:39:48.660Z,34.20
2018-09-26T13:44:45.346Z,34.70
2018-09-26T13:49:48.101Z,36.80
2018-09-26T13:54:44.901Z,38.30
2018-09-26T13:59:43.646Z,37.40
2018-09-26T14:04:38.813Z,38.30
2018-09-26T14:09:33.009Z,37.80
2018-09-26T14:14:36.552Z,38.30
2018-09-26T14:19:33.023Z,39.10
2018-09-26T14:24:28.342Z,39.00
2018-09-26T14:29:24.241Z,40.10
2018-09-26T14:34:19.132Z,38.90
2018-09-26T14:39:14.525Z,40.70
2018-09-26T14:44:09.735Z,41.00
2018-09-26T14:49:07.447Z,41.80
2018-09-26T14:54:04.265Z,41.30
2018-09-26T14:58:58.736Z,41.50
2018-09-26T15:03:54.580Z,42.40
2018-09-26T15:08:52.186Z,42.00
2018-09-26T15:13:49.141Z,42.10
2018-09-26T15:18:46.133Z,43.80
2018-09-26T15:23:42.849Z,44.40
2018-09-26T15:28:38.687Z,46.30
2018-09-26T15:33:33.960Z,45.70
2018-09-26T15:38:30.213Z,46.00
2018-09-26T15:43:25.922Z,47.10
2018-09-26T15:48:20.779Z,47.00
2018-09-26T15:53:15.761Z,47.60
2018-09-26T15:58:11.010Z,48.40
2018-09-26T16:03:06.453Z,48.50
2018-09-26T16:08:01.369Z,48.80
2018-09-26T16:12:55.569Z,49.10
2018-09-26T16:17:51.937Z,49.00
2018-09-26T16:22:46.260Z,50.10
2018-09-26T16:27:41.590Z,50.30
2018-09-26T16:32:38.865Z,50.30
2018-09-26T16:37:34.396Z,52.00
2018-09-26T16:42:29.273Z,52.40
2018-09-26T16:47:24.984Z,53.90
2018-09-26T16:52:21.595Z,56.80
2018-09-26T16:57:18.658Z,58.90
2018-09-26T17:02:13.180Z,59.80
2018-09-26T17:07:07.535Z,63.40
2018-09-26T17:12:02.317Z,63.50
2018-09-26T17:16:56.652Z,64.50
2018-09-26T17:21:51.203Z,64.50
2018-09-26T17:26:48.214Z,68.00
2018-09-26T17:31:42.668Z,68.60
2018-09-26T17:36:40.474Z,69.20
2018-09-26T17:41:36.649Z,73.60
2018-09-26T17:46:32.173Z,74.60
2018-09-26T17:51:26.910Z,74.90
2018-09-26T17:56:22.854Z,74.10
2018-09-26T18:01:18.184Z,76.00
2018-09-26T18:06:14.490Z,76.90
2018-09-26T18:11:09.041Z,79.10
2018-09-26T18:16:05.269Z,80.90
2018-09-26T18:21:00.775Z,81.70
2018-09-26T18:25:56.637Z,82.90
2018-09-26T18:30:51.318Z,79.90
2018-09-26T18:35:47.221Z,79.00
2018-09-26T18:40:42.396Z,83.60
2018-09-26T18:45:37.429Z,82.40
2018-09-26T18:50:32.384Z,81.60
2018-09-26T18:55:27.155Z,81.30
2018-09-26T19:00:21.599Z,85.20
2018-09-26T19:05:17.671Z,88.40
2018-09-26T19:10:12.364Z,87.90
2018-09-26T19:15:06.756Z,90.10
2018-09-26T19:20:00.925Z,89.70
2018-09-26T19:24:57.462Z,89.00
2018-09-26T19:29:54.620Z,90.20
2018-09-26T19:34:57.246Z,88.20
2018-09-26T19:39:52.821Z,90.70
2018-09-26T19:44:47.270Z,89.40
2018-09-26T19:49:42.142Z,91.00
2018-09-26T19:54:37.882Z,85.40
2018-09-26T19:59:34.137Z,90.50
2018-09-26T20:04:28.641Z,85.50
2018-09-26T20:09:24.120Z,90.10
2018-09-26T20:14:21.828Z,90.30
2018-09-26T20:19:18.774Z,89.70
2018-09-26T20:24:13.174Z,90.40
2018-09-26T20:29:07.976Z,91.20
2018-09-26T20:34:08.796Z,90.50
2018-09-26T20:39:10.804Z,91.10
2018-09-26T20:44:07.170Z,91.10
2018-09-26T20:49:04.482Z,91.00
2018-09-26T20:53:59.900Z,91.20
2018-09-26T20:58:59.622Z,90.70
2018-09-26T21:03:54.257Z,90.40
2018-09-26T21:08:48.630Z,89.50
2018-09-26T21:13:45.217Z,88.40
2018-09-26T21:18:47.957Z,85.50
2018-09-26T21:23:42.803Z,87.40
2018-09-26T21:28:37.435Z,86.40
2018-09-26T21:33:31.840Z,86.90
2018-09-26T21:38:26.023Z,87.10
2018-09-26T21:43:22.550Z,86.30
2018-09-26T21:48:18.667Z,84.60
2018-09-26T21:53:13.488Z,82.70
2018-09-26T21:58:08.367Z,82.20
2018-09-26T22:03:26.460Z,77.70
2018-09-26T22:08:22.088Z,76.40
2018-09-26T22:13:16.213Z,74.80
2018-09-26T22:18:12.099Z,72.30
2018-09-26T22:23:07.426Z,70.90
2018-09-26T22:28:03.636Z,71.80
2018-09-26T22:32:59.516Z,70.50
2018-09-26T22:37:55.029Z,66.40
2018-09-26T22:42:48.945Z,64.20
2018-09-26T22:47:45.317Z,66.40
2018-09-26T22:52:39.921Z,64.30
2018-09-26T22:57:35.172Z,63.80
2018-09-26T23:02:30.056Z,62.60
2018-09-26T23:07:25.843Z,58.90
2018-09-26T23:12:21.357Z,58.00
2018-09-26T23:17:15.686Z,56.80
2018-09-26T23:22:09.639Z,55.10
2018-09-26T23:27:06.056Z,54.90
2018-09-26T23:32:00.283Z,55.00
2018-09-26T23:36:56.074Z,53.20
2018-09-26T23:41:51.664Z,53.20
2018-09-26T23:46:47.040Z,53.70
2018-09-26T23:51:41.841Z,54.40
2018-09-26T23:56:36.639Z,54.80
